Latest Weather Observations for Broken Hill Airport

IDN60801

Issued at 12:13 pm EDT Monday 26 October 2020 (issued every 10 minutes, with the page automatically refreshed every 10 minutes)

About weather observations | Map of weather stations | Latest weather observations for NSW | Other Formats
Station Details ID: 047048 Name: BROKEN HILL AIRPORT AWS Lat: -32.00 Lon: 141.47 Height: 281.3 m
Data from the previous 72 hours. | See also: Recent months at Broken Hill Airport

Observations are collected in the New South Wales time zone (Eastern Standard Time) which includes daylight savings in the summer period. Therefore 'Rain since 9am' totals and other values are based on the New South Wales time zone, which may differ from local time.

Date/Time
EDT
Temp
°C
App
Temp
°C
Dew
Point
°C
Rel
Hum
%
Delta-T
°C
Wind Press
QNH
hPa
Press
MSL
hPa
Rain since
9am
mm
Dir  Spd
km/h
Gust
km/h
Spd
kts
Gust
kts
26/12:00pm 13.8 8.3 3.9 51 4.6 SSW 22 33 12 18 1018.1 1017.4 0.0
26/11:30am 13.6 8.2 4.5 54 4.3 SSW 22 32 12 17 1018.4 1017.7 0.0
26/11:00am 12.9 7.7 5.3 60 3.6 SSW 22 32 12 17 1018.6 1017.9 0.0
26/10:30am 11.8 6.3 5.9 67 2.8 SSW 24 32 13 17 1018.9 1018.2 0.0
26/10:00am 11.7 5.3 5.3 65 3.0 SSW 28 33 15 18 1018.9 1018.2 0.0
26/09:30am 11.1 4.7 5.2 67 2.7 SSW 28 35 15 19 1018.8 1018.1 0.0
26/09:00am 10.2 2.9 4.6 68 2.5 S 32 39 17 21 1018.6 1017.9 0.0
26/08:30am 9.8 3.8 5.4 74 2.0 SSW 26 33 14 18 1018.4 1017.7 0.0
26/08:00am 8.4 4.0 4.8 78 1.6 SSW 17 22 9 12 1018.3 1017.6 0.0
26/07:30am 7.5 3.4 4.1 79 1.5 SSW 15 19 8 10 1018.0 1017.3 0.0
26/07:00am 6.6 3.2 3.8 82 1.2 SSW 11 15 6 8 1017.7 1017.0 0.0
26/06:30am 5.3 2.1 3.0 85 1.0 SSW 9 13 5 7 1017.6 1016.9 0.0
26/06:00am 4.9 2.0 2.4 84 1.0 SW 7 9 4 5 1017.4 1016.7 0.0
26/05:30am 5.0 1.7 2.5 84 1.0 SW 9 11 5 6 1017.3 1016.6 0.0
26/05:00am 5.1 2.1 2.1 81 1.2 SW 7 9 4 5 1017.2 1016.5 0.0
26/04:30am 5.2 2.8 2.4 82 1.2 SW 4 7 2 4 1017.0 1016.3 0.0
26/04:00am 5.6 4.0 2.4 80 1.3 CALM 0 0 0 0 1017.0 1016.3 0.0
26/03:30am 5.7 2.8 2.7 81 1.3 SW 7 9 4 5 1016.9 1016.1 0.0
26/03:00am 6.1 3.3 2.9 80 1.3 SSW 7 9 4 5 1017.2 1016.5 0.0
26/02:30am 6.2 3.5 2.7 78 1.5 SW 6 7 3 4 1017.5 1016.8 0.0
26/02:00am 7.2 4.0 2.9 74 1.8 S 9 13 5 7 1017.8 1017.1 0.0
26/01:30am 7.4 4.2 2.9 73 1.9 SSW 9 13 5 7 1018.2 1017.5 0.0
26/01:00am 8.0 4.0 2.9 70 2.2 SSW 13 15 7 8 1018.5 1017.8 0.0
26/12:30am 8.4 5.4 2.0 64 2.7 WSW 7 9 4 5 1018.6 1017.9 0.0
26/12:00am 8.6 5.6 2.0 63 2.8 SW 7 7 4 4 1018.7 1018.0 0.0
 
Date/Time
EDT
Temp
°C
App
Temp
°C
Dew
Point
°C
Rel
Hum
%
Delta-T
°C
Wind Press
QNH
hPa
Press
MSL
hPa
Rain since
9am
mm
Dir  Spd
km/h
Gust
km/h
Spd
kts
Gust
kts
25/11:30pm 8.6 5.3 2.4 65 2.6 SW 9 9 5 5 1018.8 1018.1 0.0
25/11:00pm 9.1 5.8 2.7 64 2.8 SW 9 11 5 6 1019.0 1018.3 0.0
25/10:30pm 9.4 6.1 2.5 62 3.0 SSW 9 11 5 6 1019.3 1018.5 0.0
25/10:00pm 10.6 6.0 1.4 53 3.9 S 15 17 8 9 1019.1 1018.4 0.0
25/09:30pm 11.3 6.6 1.0 49 4.4 S 15 19 8 10 1019.0 1018.3 0.0
25/09:00pm 11.8 7.7 2.0 51 4.3 SSW 13 20 7 11 1018.8 1018.1 0.0
25/08:30pm 11.4 6.7 1.1 49 4.4 SW 15 20 8 11 1018.6 1017.9 0.0
25/08:00pm 11.9 6.2 0.4 45 4.8 SSW 20 33 11 18 1018.5 1017.8 0.0
25/07:30pm 12.5 6.0 0.6 44 5.1 SSW 24 32 13 17 1018.2 1017.5 0.0
25/07:00pm 13.0 5.0 0.1 41 5.4 S 32 39 17 21 1017.8 1017.1 0.0
25/06:30pm 13.1 5.0 1.1 44 5.2 S 33 41 18 22 1017.5 1016.8 0.0
25/06:00pm 14.5 7.4 1.1 40 5.8 S 28 39 15 21 1017.5 1016.8 0.0
25/05:30pm 14.8 8.1 1.3 40 5.9 SSW 26 39 14 21 1017.2 1016.5 0.0
25/05:00pm 14.6 6.7 0.8 39 6.0 SSW 32 39 17 21 1017.1 1016.4 0.0
25/04:30pm 15.2 8.2 1.7 40 6.0 S 28 43 15 23 1017.1 1016.4 0.0
25/04:00pm 14.9 7.6 2.4 43 5.6 S 30 43 16 23 1017.3 1016.6 0.0
25/03:30pm 14.8 7.7 1.3 40 5.9 S 28 43 15 23 1017.5 1016.8 0.0
25/03:00pm 14.1 6.6 1.4 42 5.6 SSW 30 43 16 23 1017.8 1017.1 0.0
25/02:30pm 14.7 8.0 3.8 48 5.1 SSW 28 41 15 22 1018.0 1017.3 0.0
25/02:00pm 13.9 6.3 2.8 47 5.0 S 32 41 17 22 1018.3 1017.6 0.0
25/01:30pm 13.2 6.3 2.4 48 4.8 S 28 39 15 21 1018.5 1017.8 0.0
25/01:00pm 12.4 4.8 2.6 51 4.3 S 32 43 17 23 1018.6 1017.9 0.0
25/12:30pm 12.2 5.0 2.9 53 4.1 S 30 39 16 21 1019.0 1018.3 0.0
25/12:00pm 11.3 4.2 3.6 59 3.4 S 30 37 16 20 1019.4 1018.6 0.0
25/11:30am 11.7 4.1 2.7 54 4.0 SSE 32 41 17 22 1019.7 1018.9 0.0
25/11:00am 11.8 4.5 4.3 60 3.4 S 32 41 17 22 1019.8 1019.0 0.0
25/10:30am 10.7 3.4 4.4 65 2.9 S 32 41 17 22 1019.9 1019.1 0.0
25/10:00am 10.0 3.1 4.6 69 2.4 S 30 43 16 23 1019.9 1019.1 0.0
25/09:30am 10.3 3.0 4.7 68 2.5 S 32 39 17 21 1019.8 1019.0 0.0
25/09:00am 9.9 2.9 4.1 67 2.6 S 30 39 16 21 1019.6 1018.8 0.0
25/08:30am 9.5 2.9 4.3 70 2.3 S 28 39 15 21 1019.1 1018.4 0.0
25/08:00am 7.9 2.5 4.5 79 1.5 S 22 30 12 16 1018.9 1018.2 0.0
25/07:30am 7.3 3.2 4.1 80 1.4 SSW 15 20 8 11 1018.6 1017.9 0.0
25/07:00am 6.9 2.7 3.9 81 1.3 SSW 15 19 8 10 1018.0 1017.3 0.0
25/06:30am 6.4 2.2 3.6 82 1.2 SSW 15 19 8 10 1017.7 1017.0 0.0
25/06:00am 6.6 2.0 3.6 81 1.3 SSW 17 20 9 11 1017.1 1016.4 0.0
25/05:30am 6.8 2.2 3.8 81 1.3 SSW 17 20 9 11 1016.8 1016.0 0.0
25/05:00am 7.1 2.5 3.9 80 1.4 SSW 17 20 9 11 1016.5 1015.7 0.0
25/04:30am 7.3 2.7 3.9 79 1.5 SSW 17 20 9 11 1016.2 1015.4 0.0
25/04:00am 7.7 3.1 3.9 77 1.7 SSW 17 22 9 12 1016.1 1015.3 0.0
25/03:30am 8.2 3.3 3.9 74 1.9 SSW 19 22 10 12 1016.0 1015.2 0.0
25/03:00am 8.5 3.4 4.1 74 1.9 SSW 20 24 11 13 1016.0 1015.2 0.0
25/02:30am 8.9 3.5 4.3 73 2.1 SSW 22 28 12 15 1016.0 1015.2 0.0
25/02:00am 9.4 3.9 4.0 69 2.4 SSW 22 26 12 14 1016.1 1015.3 0.0
25/01:30am 9.8 3.9 4.0 67 2.6 SSW 24 35 13 19 1016.1 1015.3 0.0
25/01:00am 10.4 3.3 3.7 63 3.0 SSW 30 37 16 20 1015.9 1015.1 0.0
25/12:30am 10.8 4.2 4.0 63 3.1 SSW 28 35 15 19 1015.7 1014.9 0.0
25/12:00am 11.4 4.7 3.9 60 3.4 SSW 28 37 15 20 1015.3 1014.6 0.0
 
Date/Time
EDT
Temp
°C
App
Temp
°C
Dew
Point
°C
Rel
Hum
%
Delta-T
°C
Wind Press
QNH
hPa
Press
MSL
hPa
Rain since
9am
mm
Dir  Spd
km/h
Gust
km/h
Spd
kts
Gust
kts
24/11:30pm 11.8 5.7 4.8 62 3.2 SSW 26 33 14 18 1014.9 1014.2 0.0
24/11:00pm 12.2 6.2 5.4 63 3.2 SSW 26 32 14 17 1014.6 1013.9 0.0
24/10:30pm 12.5 7.5 6.3 66 3.0 SSW 22 28 12 15 1014.5 1013.8 0.0
24/10:00pm 12.8 7.8 6.4 65 3.1 SSW 22 30 12 16 1014.3 1013.6 0.0
24/09:30pm 13.2 7.8 6.3 63 3.3 SSW 24 28 13 15 1013.8 1013.0 0.0
24/09:00pm 13.6 8.5 6.2 61 3.6 S 22 30 12 16 1013.4 1012.6 0.0
24/08:30pm 14.1 8.0 6.5 60 3.7 S 28 35 15 19 1012.6 1011.8 0.0
24/08:00pm 14.6 7.7 6.4 58 4.0 S 32 39 17 21 1012.1 1011.3 0.0
24/07:30pm 15.0 8.0 6.8 58 4.1 SSW 33 41 18 22 1011.8 1011.0 0.0
24/07:00pm 15.8 8.7 6.3 53 4.7 SSW 33 46 18 25 1011.3 1010.6 0.0
24/06:30pm 16.7 8.6 6.8 52 5.0 SSW 39 48 21 26 1010.9 1010.2 0.0
24/06:00pm 17.1 8.7 7.5 53 4.9 SSW 41 50 22 27 1010.2 1009.4 0.0
24/05:30pm 17.8 9.1 7.5 51 5.3 SSW 43 54 23 29 1009.8 1009.0 0.0
24/05:00pm 17.9 9.0 7.0 49 5.5 SSW 43 56 23 30 1009.8 1009.0 0.0
24/04:30pm 18.0 9.7 7.7 51 5.3 SSW 41 54 22 29 1009.7 1008.9 0.0
24/04:00pm 17.6 9.2 9.0 57 4.5 SSW 43 54 23 29 1009.5 1008.7 0.0
24/03:30pm 17.1 8.6 9.3 60 4.1 SSW 44 57 24 31 1009.5 1008.7 0.0
24/03:00pm 17.1 8.8 10.0 63 3.8 SSW 44 59 24 32 1009.6 1008.8 0.0
24/02:30pm 16.1 8.4 10.0 67 3.2 SSW 41 57 22 31 1009.5 1008.7 0.0
24/02:23pm 16.1 8.7 9.8 66 3.3 SSW 39 57 21 31 1009.4 1008.6 0.0
24/02:00pm 15.8 8.2 10.6 71 2.8 SSW 41 50 22 27 1009.5 1008.7 0.0
24/01:30pm 14.1 6.7 9.7 75 2.3 SSW 39 50 21 27 1009.5 1008.7 0.0
24/01:15pm 14.5 7.4 10.9 79 1.9 SSW 39 52 21 28 1009.4 1008.6 0.0
24/01:00pm 13.6 6.3 10.2 80 1.8 SSW 39 50 21 27 1009.4 1008.6 0.0
24/12:30pm 12.4 5.1 10.1 86 1.2 SSW 39 56 21 30 1009.4 1008.6 0.0
24/12:00pm 11.5 3.1 9.8 89 0.9 SSW 44 57 24 31 1009.1 1008.3 0.0
24/11:56am 11.5 3.4 9.9 90 0.8 SSW 43 54 23 29 1009.1 1008.3 0.0
24/11:30am 11.8 4.2 10.5 92 0.7 SSW 41 50 22 27 1008.8 1008.0 0.0
24/11:24am 12.1 4.0 10.7 91 0.7 SSW 44 63 24 34 1008.6 1007.8 0.0
24/11:00am 11.9 3.0 10.5 91 0.7 SSW 48 61 26 33 1008.2 1007.4 0.0
24/10:30am 12.4 3.6 11.0 91 0.7 SSW 48 61 26 33 1007.8 1007.1 0.0
24/10:00am 12.4 4.6 11.3 93 0.6 SSW 43 54 23 29 1007.3 1006.5 0.0
24/09:30am 12.2 4.2 11.1 93 0.6 SSW 44 57 24 31 1007.2 1006.4 17.0
24/09:29am 12.4 4.5 11.5 94 0.5 SSW 44 59 24 32 1007.1 1006.3 17.0
24/09:00am 12.4 4.2 11.6 95 0.4 SSW 46 57 25 31 1006.8 1006.0 17.0
24/08:30am 12.7 4.9 11.8 94 0.5 SSW 44 57 24 31 1006.2 1005.4 17.0
24/08:23am 12.9 5.4 12.0 94 0.5 SSW 43 57 23 31 1006.1 1005.3 17.0
24/08:20am 12.9 5.2 12.0 94 0.5 SSW 44 57 24 31 1006.0 1005.2 17.0
24/08:00am 13.2 5.8 12.3 94 0.5 SSW 43 59 23 32 1005.6 1004.8 17.0
24/07:30am 13.8 6.5 12.9 94 0.5 SSW 43 56 23 30 1005.1 1004.3 16.6
24/07:00am 15.3 10.4 14.3 94 0.6 S 33 41 18 22 1004.5 1003.6 16.0
24/06:59am 15.5 10.7 14.5 94 0.6 S 33 44 18 24 1004.4 1003.5 15.6
24/06:38am 15.5 11.2 14.5 94 0.6 S 30 37 16 20 1004.0 1003.2 15.6
24/06:30am 15.4 11.5 14.4 94 0.6 S 28 35 15 19 1003.9 1003.1 15.4
24/06:08am 15.3 10.6 14.2 93 0.6 SSW 32 43 17 23 1003.5 1002.7 13.8
24/06:00am 15.5 11.9 14.2 92 0.7 SSW 26 37 14 20 1003.4 1002.6 13.4
24/05:30am 15.4 11.1 14.3 93 0.6 S 30 41 16 22 1003.0 1002.2 13.2
24/05:20am 15.6 12.5 14.6 94 0.6 SSW 24 33 13 18 1003.0 1002.2 13.2
24/05:02am 15.8 12.0 14.8 94 0.6 S 28 35 15 19 1002.8 1002.0 12.0
24/05:00am 15.8 11.7 14.8 94 0.6 S 30 37 16 20 1002.7 1001.9 11.8
24/04:30am 16.1 13.2 15.0 93 0.6 SSE 24 32 13 17 1002.4 1001.6 10.8
24/04:00am 16.1 13.2 15.0 93 0.6 SSE 24 30 13 16 1002.2 1001.4 10.8
24/03:30am 16.1 12.8 15.0 93 0.6 SSE 26 33 14 18 1001.8 1001.0 10.8
24/03:00am 16.3 12.3 15.3 94 0.6 SSE 30 37 16 20 1001.8 1001.0 10.8
24/02:30am 16.6 14.3 15.6 94 0.6 S 22 32 12 17 1002.0 1001.2 10.8
24/02:00am 17.4 14.3 15.7 90 1.0 SSW 26 35 14 19 1002.0 1001.2 10.8
24/01:57am 17.3 15.0 15.6 90 1.0 SSW 22 35 12 19 1002.0 1001.2 10.8
24/01:30am 17.9 16.7 16.1 89 1.1 NE 17 20 9 11 1001.6 1000.8 10.8
24/01:00am 17.8 16.1 15.8 88 1.2 NE 19 22 10 12 1001.8 1001.0 10.8
24/12:30am 18.2 15.9 15.6 85 1.6 NNE 22 26 12 14 1001.5 1000.6 10.8
24/12:00am 18.1 16.4 15.7 86 1.4 NE 19 26 10 14 1001.5 1000.6 10.8
 
Date/Time
EDT
Temp
°C
App
Temp
°C
Dew
Point
°C
Rel
Hum
%
Delta-T
°C
Wind Press
QNH
hPa
Press
MSL
hPa
Rain since
9am
mm
Dir  Spd
km/h
Gust
km/h
Spd
kts
Gust
kts
23/11:30pm 18.3 16.3 15.6 84 1.6 NE 20 24 11 13 1001.8 1001.0 10.8
23/11:00pm 18.1 14.6 15.4 84 1.6 NE 28 33 15 18 1001.7 1000.9 10.8
23/10:30pm 17.8 14.6 15.4 86 1.4 NE 26 32 14 17 1001.8 1001.0 10.8
23/10:00pm 17.4 14.6 15.4 88 1.2 NE 24 30 13 16 1001.7 1000.9 10.8
23/09:30pm 17.3 13.0 15.3 88 1.2 ENE 32 43 17 23 1001.7 1000.9 10.8
23/09:00pm 17.7 15.0 15.7 88 1.2 ENE 24 32 13 17 1001.9 1001.1 10.6
23/08:30pm 17.7 14.3 15.7 88 1.2 ENE 28 39 15 21 1001.1 1000.2 10.2
23/08:00pm 18.0 15.4 15.8 87 1.3 ENE 24 35 13 19 1001.8 1001.0 10.2
23/07:30pm 17.9 16.1 16.1 89 1.1 E 20 28 11 15 1002.0 1001.2 10.2
23/07:00pm 18.5 16.9 15.9 85 1.6 E 19 20 10 11 1002.4 1001.6 10.2
23/06:30pm 18.4 17.2 16.0 86 1.4 ESE 17 20 9 11 1002.7 1001.9 10.2
23/06:00pm 18.0 16.4 16.0 88 1.2 ESE 19 26 10 14 1002.7 1001.9 10.2
23/05:30pm 18.3 18.0 16.5 89 1.1 SE 13 19 7 10 1002.6 1001.8 10.2
23/05:00pm 17.9 17.1 16.2 90 1.0 E 15 19 8 10 1002.9 1002.1 10.2
23/04:34pm 17.3 15.3 15.6 90 1.0 ESE 20 24 11 13 1003.2 1002.4 10.2
23/04:30pm 17.1 15.3 15.6 91 0.9 SE 19 24 10 13 1003.5 1002.7 10.0
23/04:01pm 17.3 17.5 15.8 91 0.9 SSE 9 13 5 7 1005.0 1004.2 4.4
23/04:00pm 17.3 17.5 15.8 91 0.9 SSE 9 13 5 7 1005.0 1004.2 4.2
23/03:30pm 17.3 16.0 15.8 91 0.9 SSW 17 22 9 12 1005.7 1004.9 2.2
23/03:00pm 17.5 13.4 16.0 91 0.9 SW 32 39 17 21 1006.3 1005.5 1.2
23/02:30pm 18.2 14.2 16.2 88 1.2 WSW 32 43 17 23 1007.1 1006.3 0.2
23/02:00pm 20.2 15.3 15.2 73 3.0 WSW 35 46 19 25 1006.8 1006.0 0.0
23/01:30pm 21.2 17.0 14.6 66 3.9 W 30 41 16 22 1006.2 1005.4 0.0
23/01:00pm 22.3 18.8 14.4 61 4.7 WNW 26 37 14 20 1006.1 1005.3 0.0

Other formats

Comma delimited format used in spreadsheet applications
http://www.bom.gov.au/fwo/IDN60801/IDN60801.94691.axf

JavaScript Object Notation format (JSON) in row-major order
http://www.bom.gov.au/fwo/IDN60801/IDN60801.94691.json

Data quality

Most of these data are generated automatically and are frequently updated. Quality checks on data are not normally performed. It is possible for incorrect values to appear. Refer to information at About Latest Weather Observations and please check the disclaimer before using these data.